Time;durP1;ratioP1;P1;durP2;ratioP2;P2;SDS_P1;SDS_P2;PMS_P1;PMS_P2;Temp;Humidity;BMP_temperature;BMP_pressure;BME280_temperature;BME280_humidity;BME280_pressure;Samples;Min_cycle;Max_cycle;Signal;HPM_P1;HPM_P2
2022/10/11 00:02:24;;;;;;;2.45;1.10;;;17.00;53.80;;;15.94;54.07;101592.72;12254072;19;20034;-83
2022/10/11 00:06:25;;;;;;;1.73;1.08;;;16.90;53.60;;;15.96;54.10;101608.41;12251871;19;20358;-82
2022/10/11 00:10:27;;;;;;;1.10;1.00;;;16.80;53.50;;;15.86;54.24;101610.81;12251833;19;20015;-83
2022/10/11 00:14:29;;;;;;;2.00;0.85;;;16.80;53.50;;;15.76;54.07;101604.44;12250415;19;20035;-82
2022/10/11 00:18:31;;;;;;;1.77;0.95;;;16.80;53.60;;;15.79;54.19;101626.13;12252138;19;20018;-82
2022/10/11 00:22:35;;;;;;;0.88;0.88;;;16.70;53.60;;;15.77;54.21;101642.97;12250485;19;20047;-82
2022/10/11 00:26:37;;;;;;;1.73;0.90;;;16.90;53.60;;;15.69;54.19;101657.50;12250167;19;20473;-81
2022/10/11 00:30:42;;;;;;;1.33;0.75;;;16.60;53.50;;;15.66;54.02;101660.28;12248708;19;20010;-82
2022/10/11 00:34:44;;;;;;;1.50;0.90;;;16.50;53.50;;;15.57;53.96;101655.56;12250647;19;20025;-83
2022/10/11 00:38:46;;;;;;;1.20;1.00;;;16.50;53.40;;;15.43;54.17;101645.03;12249671;19;20062;-81
2022/10/11 00:42:48;;;;;;;1.95;0.88;;;16.40;53.40;;;15.43;54.10;101661.66;12249494;19;20014;-82
2022/10/11 00:47:09;;;;;;;2.20;0.80;;;16.40;53.50;;;15.47;53.90;101678.13;12249681;19;20014;-82
2022/10/11 00:51:40;;;;;;;1.63;0.90;;;16.30;53.40;;;15.36;54.06;101683.19;12245082;19;20006;-81
2022/10/11 00:55:54;;;;;;;2.17;0.90;;;16.40;53.50;;;15.24;54.07;101676.88;12243319;19;20026;-82
2022/10/11 00:59:56;;;;;;;1.13;0.70;;;16.20;53.40;;;15.30;53.98;101692.31;12250452;19;20019;-82
2022/10/11 01:03:59;;;;;;;1.38;1.05;;;16.40;53.50;;;15.29;53.67;101698.50;12263132;19;20018;-82
2022/10/11 01:08:02;;;;;;;1.20;1.02;;;16.20;53.40;;;15.23;54.14;101696.25;12263517;19;20481;-83
2022/10/11 01:12:13;;;;;;;1.60;0.65;;;16.10;53.40;;;15.15;54.02;101695.81;12266926;19;20018;-82
2022/10/11 01:16:50;;;;;;;0.60;0.60;;;16.00;53.40;;;14.99;53.96;101699.38;12263227;19;20003;-82
2022/10/11 01:21:28;;;;;;;1.75;0.90;;;16.00;53.40;;;15.08;53.95;101726.09;12261332;19;20010;-83
2022/10/11 01:25:54;;;;;;;;;;;15.90;53.40;;;15.01;54.08;101726.44;12265209;19;20023;-82
2022/10/11 01:30:30;;;;;;;1.38;0.70;;;15.90;53.20;;;14.93;54.03;101730.44;12262462;19;19970;-82
2022/10/11 01:34:45;;;;;;;2.03;0.80;;;15.80;53.30;;;14.87;53.90;101738.69;12259421;19;20057;-83
2022/10/11 01:39:03;;;;;;;0.80;0.80;;;15.70;53.20;;;14.81;53.78;101740.72;12263399;19;20013;-82
2022/10/11 01:43:05;;;;;;;0.75;0.57;;;15.70;53.30;;;14.62;54.02;101721.66;12262680;19;20022;-82
2022/10/11 01:47:07;;;;;;;2.08;0.82;;;15.60;53.30;;;14.66;53.92;101738.09;12264853;19;20074;-83
2022/10/11 01:51:09;;;;;;;3.45;0.90;;;15.60;53.30;;;14.46;54.07;101712.91;12259848;19;20014;-82
2022/10/11 01:55:39;;;;;;;2.30;0.95;;;15.50;53.40;;;14.57;53.87;101755.25;12261448;19;20022;-82
2022/10/11 02:00:22;;;;;;;2.00;0.70;;;15.60;53.50;;;14.52;54.04;101752.88;12260248;19;20014;-82
2022/10/11 02:04:36;;;;;;;0.75;0.75;;;15.50;53.50;;;14.44;54.03;101754.19;12262926;19;20018;-82
2022/10/11 02:08:55;;;;;;;0.80;0.60;;;15.30;53.40;;;14.43;54.06;101765.66;12260274;19;20018;-80
2022/10/11 02:13:21;;;;;;;0.93;0.65;;;15.50;53.50;;;14.42;54.06;101772.69;12260506;19;20017;-82
2022/10/11 02:17:32;;;;;;;2.28;0.98;;;15.30;53.40;;;14.36;54.02;101773.00;12260276;19;20449;-82
2022/10/11 02:21:39;;;;;;;4.65;0.85;;;15.30;53.40;;;14.34;54.04;101772.25;12259838;19;20024;-82
2022/10/11 02:25:43;;;;;;;1.27;0.80;;;15.10;53.40;;;14.25;53.91;101780.63;12261923;19;20052;-82
2022/10/11 02:29:49;;;;;;;2.42;1.08;;;15.30;53.50;;;14.15;54.01;101775.88;12257848;19;20034;-82
2022/10/11 02:34:21;;;;;;;3.17;0.93;;;15.20;53.60;;;14.12;54.18;101781.28;12260265;19;20026;-82
2022/10/11 02:38:29;;;;;;;4.32;0.80;;;15.00;53.70;;;14.02;54.17;101780.06;12256167;19;20021;-82
2022/10/11 02:42:41;;;;;;;1.50;0.63;;;14.90;53.80;;;13.89;54.19;101761.47;12260483;19;20026;-82
2022/10/11 02:46:45;;;;;;;0.80;0.70;;;14.80;53.80;;;14.00;54.18;101779.31;12260562;19;20011;-82
2022/10/11 02:50:47;;;;;;;1.35;0.75;;;14.90;53.80;;;13.95;54.11;101776.91;12256589;19;20027;-81
2022/10/11 02:54:48;;;;;;;0.90;0.70;;;14.80;53.70;;;13.96;54.37;101790.91;12259311;19;20006;-82
2022/10/11 02:58:50;;;;;;;3.65;1.13;;;14.80;53.60;;;13.98;54.17;101796.91;12258689;19;20015;-82
2022/10/11 03:02:52;;;;;;;2.80;0.98;;;14.80;53.60;;;13.91;54.08;101814.78;12257288;19;20010;-82
2022/10/11 03:06:53;;;;;;;0.63;0.50;;;14.70;53.40;;;13.86;54.21;101816.78;12266333;19;20010;-82
2022/10/11 03:10:55;;;;;;;4.32;1.55;;;14.70;53.40;;;13.77;54.24;101817.28;12260785;19;20010;-82
2022/10/11 03:14:57;;;;;;;1.58;0.75;;;14.60;53.40;;;13.79;54.18;101830.31;12257074;19;20017;-82
2022/10/11 03:18:59;;;;;;;2.13;0.80;;;14.80;53.50;;;13.72;54.24;101829.78;12258645;19;20014;-82
2022/10/11 03:23:00;;;;;;;0.98;0.68;;;14.60;53.50;;;13.72;54.14;101840.28;12260300;19;20035;-82
2022/10/11 03:27:02;;;;;;;0.82;0.70;;;14.50;53.30;;;13.65;54.18;101850.22;12257387;19;20018;-82
2022/10/11 03:31:04;;;;;;;2.88;0.90;;;14.50;53.30;;;13.64;54.16;101848.53;12256765;19;20020;-82
2022/10/11 03:35:06;;;;;;;1.17;0.60;;;14.50;53.20;;;13.58;54.19;101875.06;12256805;19;20025;-82
2022/10/11 03:39:08;;;;;;;0.80;0.55;;;14.40;53.20;;;13.54;54.21;101868.28;12257266;19;20031;-82
2022/10/11 03:43:11;;;;;;;2.40;0.95;;;14.50;53.20;;;13.42;54.19;101871.50;12259869;19;20045;-82
2022/10/11 03:47:12;;;;;;;1.50;0.82;;;14.40;53.20;;;13.41;54.24;101875.06;12258703;19;20015;-82
2022/10/11 03:51:14;;;;;;;1.58;0.88;;;14.30;53.20;;;13.33;54.20;101875.41;12254569;19;20493;-82
2022/10/11 03:55:16;;;;;;;2.50;0.73;;;14.20;53.50;;;13.33;54.12;101885.06;12253750;19;20007;-82
2022/10/11 03:59:18;;;;;;;2.08;0.65;;;14.20;53.20;;;13.20;54.32;101874.28;12257278;19;20083;-82
2022/10/11 04:03:20;;;;;;;1.58;0.73;;;14.10;53.10;;;13.21;54.25;101894.34;12256064;19;20022;-82
2022/10/11 04:07:21;;;;;;;1.52;0.70;;;14.10;53.10;;;13.07;54.16;101890.59;12255389;19;20017;-82
2022/10/11 04:11:24;;;;;;;0.75;0.65;;;14.00;53.00;;;13.10;54.05;101904.50;12251450;19;20078;-82
2022/10/11 04:15:25;;;;;;;2.38;1.02;;;14.00;53.10;;;13.04;54.07;101914.34;12252270;19;20011;-82
2022/10/11 04:19:29;;;;;;;2.50;1.02;;;13.90;53.00;;;12.97;54.13;101914.72;12249981;19;20014;-81
2022/10/11 04:23:32;;;;;;;2.50;0.90;;;13.80;53.10;;;12.92;54.14;101921.94;12250326;19;20460;-81
2022/10/11 04:27:34;;;;;;;1.10;0.98;;;13.80;53.20;;;12.52;54.20;101866.06;12249976;19;20021;-81
2022/10/11 04:31:35;;;;;;;3.45;0.80;;;13.70;53.20;;;12.77;54.20;101918.22;12246209;19;20078;-82
2022/10/11 04:35:37;;;;;;;1.80;1.10;;;13.60;53.20;;;12.69;54.23;101912.47;12244500;19;20014;-81
2022/10/11 04:39:38;;;;;;;3.63;1.10;;;13.60;53.20;;;12.67;54.15;101924.81;12242525;19;20017;-81
2022/10/11 04:43:40;;;;;;;2.60;0.90;;;13.60;53.20;;;12.56;54.27;101920.91;12249457;19;20174;-81
2022/10/11 04:47:42;;;;;;;3.72;1.88;;;13.50;53.10;;;12.60;54.29;101926.84;12247545;19;20461;-81
2022/10/11 04:51:44;;;;;;;2.55;0.73;;;13.50;53.10;;;12.49;54.16;101918.63;12248746;19;20007;-81
2022/10/11 04:56:17;;;;;;;0.75;0.75;;;13.40;53.10;;;12.45;54.24;101936.25;12246939;19;20035;-81
2022/10/11 05:00:19;;;;;;;2.05;0.95;;;13.30;53.40;;;12.23;54.27;101912.72;12246830;19;20031;-81
2022/10/11 05:04:21;;;;;;;2.13;1.20;;;13.30;53.10;;;12.33;54.18;101937.59;12249975;19;20042;-81
2022/10/11 05:08:23;;;;;;;1.40;1.20;;;13.30;53.10;;;12.34;54.18;101944.56;12247837;19;20045;-81
2022/10/11 05:12:25;;;;;;;1.92;1.05;;;13.30;53.10;;;12.27;54.26;101950.97;12251458;19;20041;-81
2022/10/11 05:16:27;;;;;;;1.95;0.93;;;13.20;53.00;;;12.18;54.12;101952.22;12258294;19;20010;-80
2022/10/11 05:20:29;;;;;;;3.42;1.20;;;13.10;53.40;;;12.19;54.31;101968.78;12245160;19;20018;-80
2022/10/11 05:24:30;;;;;;;2.47;1.00;;;13.10;53.10;;;12.17;54.19;101970.59;12248289;19;20015;-82
2022/10/11 05:28:32;;;;;;;1.98;0.82;;;13.00;53.00;;;12.08;54.30;101974.47;12247130;19;20021;-82
2022/10/11 05:32:34;;;;;;;6.47;1.73;;;13.00;53.10;;;12.04;54.21;101983.34;12245543;19;20334;-82
2022/10/11 05:36:35;;;;;;;1.58;1.10;;;13.00;53.10;;;11.97;54.19;101989.78;12246530;19;20090;-81
2022/10/11 05:40:38;;;;;;;4.22;1.38;;;12.90;53.10;;;11.98;54.33;102007.16;12245028;19;20014;-82
2022/10/11 05:44:40;;;;;;;2.20;1.50;;;12.90;53.10;;;11.92;54.27;102008.28;12247635;19;20371;-82
2022/10/11 05:48:42;;;;;;;2.75;1.10;;;12.80;53.10;;;11.88;54.27;102011.94;12248174;19;20023;-81
2022/10/11 05:52:44;;;;;;;2.40;1.08;;;12.80;53.20;;;11.84;54.35;102012.06;12259128;19;20030;-81
2022/10/11 05:56:45;;;;;;;1.23;1.13;;;12.70;53.20;;;11.73;54.25;102004.66;12258811;19;20037;-83
2022/10/11 06:00:47;;;;;;;2.17;1.27;;;12.90;53.40;;;11.74;54.53;102016.81;12252873;19;20042;-83
2022/10/11 06:04:49;;;;;;;2.35;1.15;;;12.90;53.40;;;11.71;54.52;102020.41;12257546;19;20011;-82
2022/10/11 06:08:51;;;;;;;2.45;1.10;;;12.70;53.40;;;11.72;54.60;102010.81;12255095;19;20354;-82
2022/10/11 06:12:52;;;;;;;2.83;1.20;;;12.60;53.50;;;11.68;54.55;102020.53;12253965;19;20018;-82
2022/10/11 06:16:54;;;;;;;5.40;1.45;;;12.60;53.50;;;11.70;54.49;102033.56;12257243;19;20014;-82
2022/10/11 06:20:59;;;;;;;4.40;1.45;;;12.60;53.70;;;11.61;54.65;102029.53;12251302;19;20018;-82
2022/10/11 06:25:01;;;;;;;4.15;1.50;;;12.60;53.70;;;11.55;54.56;102026.28;12256022;19;20038;-82
2022/10/11 06:29:04;;;;;;;4.75;1.75;;;12.60;53.70;;;11.59;54.70;102031.34;12252782;19;20021;-82
2022/10/11 06:33:05;;;;;;;3.28;1.35;;;12.60;53.80;;;11.66;54.65;102042.44;12257539;19;20023;-82
2022/10/11 06:37:07;;;;;;;4.07;1.88;;;12.60;53.90;;;11.72;54.82;102061.38;12258722;19;20029;-82
2022/10/11 06:41:19;;;;;;;3.08;1.60;;;12.60;54.00;;;11.70;54.64;102071.03;12254638;19;20135;-82
2022/10/11 06:45:21;;;;;;;3.40;1.27;;;12.70;54.30;;;11.62;54.82;102051.31;12259382;19;20010;-83
2022/10/11 06:49:23;;;;;;;2.78;1.40;;;12.90;54.60;;;11.76;54.84;102071.72;12256680;19;20010;-81
2022/10/11 06:53:28;;;;;;;2.83;1.75;;;12.70;54.80;;;11.69;54.92;102076.31;12256383;19;20021;-82
2022/10/11 06:57:30;;;;;;;2.08;1.50;;;12.70;55.00;;;11.73;55.07;102075.31;12255680;19;20018;-80
2022/10/11 07:01:32;;;;;;;4.63;1.33;;;12.70;55.30;;;11.80;55.27;102087.25;12247512;19;20475;-82
2022/10/11 07:05:34;;;;;;;8.52;1.73;;;12.80;55.40;;;11.88;55.14;102089.59;12254216;19;20040;-81
2022/10/11 07:09:36;;;;;;;2.10;1.42;;;12.80;55.60;;;11.93;55.38;102101.59;12249973;19;20010;-82
2022/10/11 07:13:39;;;;;;;3.65;1.80;;;12.80;55.70;;;11.83;55.28;102081.91;12253085;19;20007;-81
2022/10/11 07:17:41;;;;;;;1.30;1.20;;;12.90;55.80;;;12.00;55.30;102101.38;12256905;19;20010;-81
2022/10/11 07:21:42;;;;;;;2.28;1.52;;;13.10;55.90;;;12.07;55.54;102115.91;12261721;19;20014;-81
2022/10/11 07:25:45;;;;;;;3.58;1.83;;;13.30;56.00;;;12.07;55.65;102100.19;12255661;19;20457;-83
2022/10/11 07:29:47;;;;;;;5.07;1.52;;;13.10;56.00;;;12.20;55.71;102127.59;12251110;19;20651;-82
2022/10/11 07:33:49;;;;;;;3.90;1.58;;;13.50;56.20;;;12.27;55.68;102128.22;12248173;19;20011;-83
2022/10/11 07:37:50;;;;;;;3.33;1.85;;;13.30;56.30;;;12.32;55.80;102131.53;12252250;19;20019;-81
2022/10/11 07:41:52;;;;;;;2.88;1.45;;;13.30;56.30;;;12.34;55.87;102124.44;12254410;19;20030;-82
2022/10/11 07:45:54;;;;;;;4.28;1.35;;;13.40;56.50;;;12.47;56.01;102120.41;12253970;19;20469;-82
2022/10/11 07:49:56;;;;;;;2.08;1.17;;;13.50;56.60;;;12.55;56.11;102128.81;12254692;19;20469;-82
2022/10/11 07:53:57;;;;;;;6.20;1.83;;;13.60;56.80;;;12.68;56.26;102123.06;12255105;19;20070;-81
2022/10/11 07:57:59;;;;;;;4.22;1.63;;;13.80;56.80;;;12.80;56.22;102131.28;12254978;19;20010;-81
2022/10/11 08:02:01;;;;;;;4.05;1.40;;;13.90;56.70;;;13.05;56.25;102154.69;12253247;19;20345;-80
2022/10/11 08:06:07;;;;;;;3.53;1.60;;;14.10;56.70;;;13.18;56.26;102160.28;12254120;19;20027;-81
2022/10/11 08:10:09;;;;;;;10.07;1.45;;;14.30;56.60;;;13.24;56.35;102144.25;12249011;19;20022;-81
2022/10/11 08:14:11;;;;;;;2.92;1.52;;;14.40;56.40;;;13.39;56.31;102161.13;12251193;19;20523;-80
2022/10/11 08:18:12;;;;;;;3.28;1.60;;;14.50;56.20;;;13.49;56.25;102158.94;12251551;19;20077;-81
2022/10/11 08:22:14;;;;;;;9.07;2.25;;;14.60;56.30;;;13.54;56.23;102150.88;12254331;19;20066;-82
2022/10/11 08:26:16;;;;;;;2.88;1.30;;;14.90;56.20;;;13.70;56.44;102162.41;12253384;19;20025;-82
2022/10/11 08:30:18;;;;;;;3.80;1.75;;;14.80;56.10;;;13.87;56.41;102170.34;12250230;19;20078;-81
2022/10/11 08:34:19;;;;;;;4.80;1.92;;;15.00;56.10;;;14.04;56.50;102177.47;12249420;19;20022;-81
2022/10/11 08:38:21;;;;;;;2.78;1.77;;;15.10;56.10;;;14.19;56.61;102180.28;12253194;19;20025;-80
2022/10/11 08:42:44;;;;;;;2.67;1.23;;;15.30;55.90;;;14.32;56.59;102181.41;12254554;19;20018;-82
2022/10/11 08:46:56;;;;;;;5.65;1.48;;;15.50;55.80;;;14.27;56.73;102146.63;12251411;19;20018;-84
2022/10/11 08:50:58;;;;;;;2.00;1.30;;;15.60;55.70;;;14.59;56.57;102169.59;12248503;19;20017;-83
2022/10/11 08:55:16;;;;;;;3.05;1.40;;;15.90;55.50;;;14.83;56.47;102182.47;12247101;19;20023;-81
2022/10/11 08:59:48;;;;;;;4.38;1.30;;;16.00;55.30;;;14.95;56.53;102187.09;12255059;19;20018;-84
2022/10/11 09:03:50;;;;;;;6.40;1.52;;;16.40;55.30;;;15.04;56.68;102162.97;12248636;19;20361;-83
2022/10/11 09:08:09;;;;;;;5.50;2.28;;;16.40;55.00;;;15.29;56.46;102185.41;12248780;19;20044;-83
2022/10/11 09:13:01;;;;;;;3.03;1.02;;;16.60;54.70;;;15.29;56.28;102174.88;12247636;19;20030;-83
2022/10/11 09:17:32;;;;;;;4.60;1.60;;;16.70;54.80;;;15.54;56.63;102184.13;12248216;19;20626;-83
2022/10/11 09:22:09;;;;;;;3.10;1.13;;;16.90;54.30;;;15.57;56.23;102160.25;12246700;19;20039;-83
2022/10/11 09:26:20;;;;;;;2.78;0.90;;;17.00;54.20;;;15.67;56.33;102154.41;12260420;19;20467;-84
2022/10/11 09:30:21;;;;;;;3.85;1.25;;;17.10;53.90;;;16.00;56.15;102181.69;12268356;19;20018;-84
2022/10/11 09:34:31;;;;;;;4.55;1.20;;;17.30;53.80;;;16.13;56.16;102191.47;12256614;19;20018;-81
2022/10/11 09:38:49;;;;;;;2.13;0.90;;;17.40;53.70;;;16.26;56.01;102190.78;12258997;19;20477;-81
2022/10/11 09:42:54;;;;;;;3.70;0.95;;;17.50;53.40;;;16.46;56.09;102194.94;12257378;19;20032;-82
2022/10/11 09:46:56;;;;;;;4.40;1.15;;;17.60;53.10;;;16.48;55.87;102178.09;12263624;19;20022;-84
2022/10/11 09:51:05;;;;;;;4.70;1.45;;;17.80;53.00;;;16.68;56.04;102189.28;12255931;19;20013;-84
2022/10/11 09:55:27;;;;;;;3.10;1.00;;;17.90;53.00;;;16.83;55.89;102192.88;12256178;19;20006;-83
2022/10/11 09:59:36;;;;;;;2.33;0.80;;;18.10;52.90;;;16.97;55.81;102195.53;12259396;19;20014;-83
2022/10/11 10:03:42;;;;;;;4.15;1.25;;;18.10;52.00;;;17.05;55.50;102193.31;12259780;19;20043;-82
2022/10/11 10:08:09;;;;;;;3.97;1.27;;;18.30;51.80;;;17.16;55.32;102195.31;12257685;19;20374;-84
2022/10/11 10:12:18;;;;;;;5.80;1.38;;;18.40;52.00;;;17.23;55.20;102186.94;12259482;19;20014;-83
2022/10/11 10:16:31;;;;;;;2.47;0.70;;;18.50;51.50;;;17.21;54.98;102175.63;12254606;19;20007;-83
2022/10/11 10:20:35;;;;;;;1.40;0.90;;;18.60;51.10;;;17.34;55.03;102188.09;12255469;19;20707;-83
2022/10/11 10:24:40;;;;;;;1.85;1.00;;;18.60;51.10;;;17.31;54.63;102186.47;12259296;19;20364;-82
2022/10/11 10:29:08;;;;;;;1.67;0.77;;;18.70;51.10;;;17.45;54.60;102204.13;12255066;19;20414;-83
2022/10/11 10:33:10;;;;;;;5.30;0.98;;;18.70;51.10;;;17.45;54.62;102194.41;12256573;19;20011;-83
2022/10/11 10:37:33;;;;;;;3.13;1.17;;;18.70;50.60;;;17.44;54.65;102186.56;12254483;19;20018;-83
2022/10/11 10:41:34;;;;;;;4.30;1.13;;;18.70;50.40;;;17.49;54.37;102187.13;12257021;19;20018;-84
2022/10/11 10:46:00;;;;;;;4.50;0.95;;;18.80;50.00;;;17.62;54.00;102208.38;12255518;19;20055;-83
2022/10/11 10:50:07;;;;;;;2.57;0.90;;;18.80;50.10;;;17.65;54.25;102209.03;12252460;19;20011;-82
2022/10/11 10:54:38;;;;;;;1.23;0.70;;;18.80;49.90;;;17.70;54.12;102204.31;12253585;19;20010;-82
2022/10/11 10:59:25;;;;;;;1.48;0.70;;;18.90;50.00;;;17.73;53.81;102192.72;12253536;19;20077;-83
2022/10/11 11:03:41;;;;;;;2.47;0.82;;;18.90;49.60;;;17.81;53.68;102200.19;12253940;19;20014;-82
2022/10/11 11:08:10;;;;;;;3.22;1.38;;;19.00;49.00;;;17.82;53.40;102204.53;12251059;19;20338;-83
2022/10/11 11:12:45;;;;;;;3.15;1.00;;;19.00;49.00;;;17.77;53.13;102193.34;12255343;19;20023;-82
2022/10/11 11:17:09;;;;;;;2.08;1.05;;;19.20;48.90;;;17.80;53.36;102196.72;12248917;19;20003;-84
2022/10/11 11:21:14;;;;;;;2.10;0.90;;;19.00;48.60;;;17.89;53.16;102213.78;12248330;19;20022;-82
2022/10/11 11:25:24;;;;;;;2.63;0.77;;;19.00;48.70;;;17.81;52.83;102208.13;12255802;19;20029;-83
2022/10/11 11:29:50;;;;;;;5.10;1.15;;;18.90;48.60;;;17.66;52.62;102194.91;12251408;19;20279;-83
2022/10/11 11:34:11;;;;;;;4.50;0.98;;;18.90;48.50;;;17.60;52.82;102197.91;12249105;19;20014;-83
2022/10/11 11:38:36;;;;;;;3.20;1.00;;;18.80;48.60;;;17.56;52.59;102187.63;12261988;19;20042;-83
2022/10/11 11:42:50;;;;;;;3.40;0.98;;;18.90;48.50;;;17.51;52.76;102179.97;12259890;19;20010;-83
2022/10/11 11:47:03;;;;;;;4.07;0.80;;;18.80;48.80;;;17.64;52.48;102190.66;12255167;19;20025;-84
2022/10/11 11:51:19;;;;;;;3.28;1.00;;;18.70;48.80;;;17.62;52.27;102184.59;12252660;19;20022;-83
2022/10/11 11:55:44;;;;;;;2.03;0.73;;;19.00;48.90;;;17.67;52.45;102195.75;12251687;19;20374;-85
2022/10/11 12:00:01;;;;;;;2.72;0.90;;;18.70;48.80;;;17.71;52.12;102197.22;12251197;19;20011;-83
2022/10/11 12:04:22;;;;;;;3.60;1.10;;;18.70;48.60;;;17.68;51.95;102195.63;12261165;19;20007;-84
2022/10/11 12:08:28;;;;;;;1.45;0.55;;;18.70;48.50;;;17.57;51.96;102182.22;12250945;19;20133;-82
2022/10/11 12:12:34;;;;;;;5.00;1.00;;;18.70;48.50;;;17.48;52.09;102166.97;12251436;19;20361;-83
2022/10/11 12:17:11;;;;;;;6.57;1.00;;;18.90;48.70;;;17.57;51.98;102195.44;12248659;19;20026;-83
2022/10/11 12:21:35;;;;;;;3.65;0.75;;;18.60;48.70;;;17.53;51.88;102183.38;12250148;19;20358;-83
2022/10/11 12:25:41;;;;;;;3.88;1.23;;;18.50;48.60;;;17.52;51.68;102184.31;12251977;19;20014;-83
2022/10/11 12:29:48;;;;;;;3.78;1.05;;;18.50;48.30;;;17.55;51.67;102185.91;12248858;19;20019;-83
2022/10/11 12:33:59;;;;;;;1.75;1.08;;;18.50;48.30;;;17.59;51.75;102188.28;12247621;19;20052;-82
2022/10/11 12:38:33;;;;;;;1.42;0.90;;;18.70;48.50;;;17.60;51.80;102191.75;12248770;19;20034;-82
2022/10/11 12:42:36;;;;;;;2.63;1.00;;;18.50;48.40;;;17.63;51.72;102189.81;12251370;19;20032;-83
2022/10/11 12:47:10;;;;;;;3.03;1.17;;;18.50;48.40;;;17.45;51.17;102159.25;12250803;19;20421;-83
2022/10/11 12:51:53;;;;;;;6.53;1.48;;;18.60;48.40;;;17.61;51.57;102188.19;12245885;19;20485;-83
2022/10/11 12:56:03;;;;;;;3.78;0.77;;;18.60;48.30;;;17.59;51.37;102167.16;12247710;19;20018;-83
2022/10/11 13:00:29;;;;;;;4.07;0.98;;;18.60;48.30;;;17.68;51.29;102171.00;12242136;19;20022;-82
2022/10/11 13:04:32;;;;;;;4.28;1.38;;;18.70;48.40;;;17.77;51.23;102166.94;12247463;19;20007;-81
2022/10/11 13:08:40;;;;;;;1.65;0.70;;;18.70;47.90;;;17.62;51.25;102145.81;12243392;19;20485;-82
2022/10/11 13:12:44;;;;;;;4.80;0.90;;;18.90;48.00;;;17.85;51.24;102180.59;12247196;19;20035;-81
2022/10/11 13:17:19;;;;;;;3.03;0.83;;;19.00;48.00;;;17.87;50.91;102181.31;12247729;19;20011;-82
2022/10/11 13:21:35;;;;;;;2.40;0.75;;;18.90;47.70;;;17.79;51.10;102173.00;12241928;19;20295;-82
2022/10/11 13:25:37;;;;;;;3.30;0.77;;;18.90;48.10;;;17.91;51.15;102193.41;12243642;19;20018;-82
2022/10/11 13:29:42;;;;;;;2.80;0.90;;;18.90;48.30;;;17.88;50.88;102186.50;12247987;19;20021;-82
2022/10/11 13:33:45;;;;;;;3.50;0.90;;;19.00;48.20;;;17.80;50.67;102174.72;12245813;19;20011;-83
2022/10/11 13:37:48;;;;;;;2.17;0.88;;;18.80;47.90;;;17.85;50.86;102193.78;12246416;19;20021;-82
2022/10/11 13:41:49;;;;;;;4.13;1.00;;;19.00;48.00;;;17.80;50.78;102193.22;12246816;19;20011;-82
2022/10/11 13:45:53;;;;;;;3.17;1.02;;;18.80;47.60;;;17.81;50.57;102192.28;12249669;19;20022;-82
2022/10/11 13:50:09;;;;;;;1.10;0.82;;;18.80;47.70;;;17.78;50.56;102192.44;12251750;19;20019;-82
2022/10/11 13:54:11;;;;;;;2.38;0.80;;;18.70;47.60;;;17.65;50.38;102160.63;12249545;19;20749;-84
2022/10/11 13:58:27;;;;;;;3.20;0.93;;;18.70;47.70;;;17.44;50.37;102139.03;12250565;19;20046;-85
2022/10/11 14:02:31;;;;;;;3.75;1.25;;;18.70;47.50;;;17.66;50.40;102172.88;12247311;19;20019;-84
2022/10/11 14:06:46;;;;;;;2.35;0.77;;;18.80;47.40;;;17.66;50.38;102180.81;12250389;19;20046;-83
2022/10/11 14:10:48;;;;;;;3.17;0.73;;;18.60;47.20;;;17.60;50.28;102170.63;12255363;19;20125;-85
2022/10/11 14:14:50;;;;;;;2.08;1.05;;;18.60;47.50;;;17.53;50.36;102161.41;12258878;19;20007;-84
2022/10/11 14:18:57;;;;;;;2.10;1.08;;;18.60;47.50;;;17.70;50.39;102190.25;12257716;19;20018;-82
2022/10/11 14:22:59;;;;;;;1.45;0.82;;;18.60;47.50;;;17.62;50.34;102168.75;12258852;19;20013;-82
2022/10/11 14:27:04;;;;;;;3.42;1.15;;;18.50;47.50;;;17.71;50.27;102184.03;12257739;19;20014;-83
2022/10/11 14:31:07;;;;;;;2.17;0.90;;;18.60;47.50;;;17.65;50.12;102174.69;12247757;19;20035;-81
2022/10/11 14:35:17;;;;;;;1.20;0.75;;;18.60;47.40;;;17.60;50.17;102173.28;12249996;19;20019;-82
2022/10/11 14:39:22;;;;;;;2.88;0.80;;;18.60;47.30;;;17.49;49.91;102163.38;12247291;19;20045;-82
2022/10/11 14:43:23;;;;;;;;;;;18.70;47.40;;;17.57;50.17;102190.16;12253442;19;20375;-81
2022/10/11 14:47:25;;;;;;;1.05;0.70;;;18.50;48.20;;;17.58;50.07;102183.94;12250139;19;19918;-82
2022/10/11 14:51:33;;;;;;;1.83;0.85;;;18.50;47.00;;;17.54;49.80;102182.44;12248317;19;20029;-82
2022/10/11 14:55:37;;;;;;;1.40;0.70;;;18.50;47.10;;;17.55;49.80;102185.91;12247396;19;20015;-82
2022/10/11 14:59:38;;;;;;;2.05;0.73;;;18.40;47.10;;;17.42;49.81;102165.56;12249387;19;20035;-82
2022/10/11 15:03:40;;;;;;;2.15;0.75;;;18.40;47.00;;;17.50;49.67;102178.28;12250074;19;20019;-81
2022/10/11 15:07:41;;;;;;;2.13;0.82;;;18.40;47.10;;;17.54;49.93;102195.63;12249310;19;20023;-82
2022/10/11 15:11:43;;;;;;;5.18;0.98;;;18.40;47.10;;;17.54;49.77;102187.72;12251053;19;20066;-83
2022/10/11 15:15:45;;;;;;;2.10;0.70;;;18.40;47.10;;;17.51;49.62;102184.41;12250857;19;20014;-82
2022/10/11 15:19:46;;;;;;;3.08;0.63;;;18.40;47.10;;;17.52;49.56;102181.66;12247978;19;20464;-82
2022/10/11 15:23:49;;;;;;;3.53;0.93;;;18.40;47.20;;;17.46;49.43;102171.47;12247532;19;20472;-82
2022/10/11 15:27:53;;;;;;;1.08;0.60;;;18.40;47.40;;;17.49;49.65;102181.84;12247891;19;20036;-82
2022/10/11 15:31:54;;;;;;;3.03;1.15;;;18.50;47.50;;;17.49;49.52;102176.56;12248394;19;20011;-82
2022/10/11 15:35:56;;;;;;;2.75;1.13;;;18.40;47.80;;;17.51;49.62;102187.91;12246367;19;20539;-82
2022/10/11 15:39:58;;;;;;;1.13;1.00;;;18.40;47.40;;;17.48;49.51;102180.16;12245147;19;20022;-83
2022/10/11 15:43:59;;;;;;;2.45;1.10;;;18.40;47.60;;;17.47;49.46;102178.44;12250581;19;20007;-82
2022/10/11 15:48:04;;;;;;;3.00;0.98;;;18.30;47.60;;;17.28;49.50;102154.13;12245172;19;20500;-82
2022/10/11 15:52:06;;;;;;;1.80;1.00;;;18.30;47.60;;;17.43;49.58;102190.16;12247474;19;20022;-83
2022/10/11 15:56:15;;;;;;;3.47;1.10;;;18.30;47.70;;;17.38;49.49;102194.88;12265513;19;20010;-84
2022/10/11 16:00:17;;;;;;;3.08;1.20;;;18.30;47.90;;;17.33;49.56;102189.00;12254282;19;20010;-82
2022/10/11 16:04:19;;;;;;;4.78;1.20;;;18.30;48.10;;;17.28;49.63;102199.84;12253777;19;20006;-81
2022/10/11 16:08:20;;;;;;;3.05;1.25;;;18.20;47.90;;;17.21;49.58;102194.09;12251807;19;20018;-82
2022/10/11 16:12:22;;;;;;;6.70;1.92;;;18.40;47.90;;;16.99;49.68;102175.22;12250846;19;20022;-83
2022/10/11 16:16:24;;;;;;;5.13;2.20;;;18.00;47.70;;;17.00;49.49;102201.50;12249903;19;20344;-83
2022/10/11 16:20:25;;;;;;;9.23;2.72;;;18.20;47.70;;;16.95;49.34;102210.63;12245226;19;20022;-82
2022/10/11 16:24:27;;;;;;;4.13;1.17;;;17.80;47.70;;;16.83;49.42;102217.47;12249440;19;20013;-82
2022/10/11 16:28:30;;;;;;;4.00;1.40;;;17.70;47.60;;;16.67;49.34;102199.00;12248454;19;20094;-82
2022/10/11 16:32:33;;;;;;;4.88;1.50;;;17.60;47.70;;;16.60;49.40;102224.00;12245356;19;20366;-82
2022/10/11 16:36:35;;;;;;;2.70;0.98;;;17.50;47.80;;;16.24;49.29;102177.69;12246219;19;20011;-82
2022/10/11 16:40:39;;;;;;;3.63;1.13;;;17.30;47.70;;;16.37;49.38;102222.69;12239987;19;20655;-82
2022/10/11 16:44:41;;;;;;;1.52;1.10;;;17.20;47.90;;;16.24;49.26;102216.38;12247387;19;20512;-82
2022/10/11 16:48:43;;;;;;;3.72;1.52;;;17.10;48.10;;;16.10;49.49;102201.31;12245661;19;20026;-82
2022/10/11 16:52:44;;;;;;;2.67;1.52;;;17.00;48.20;;;16.07;49.38;102225.22;12246969;19;20388;-82
2022/10/11 16:56:50;;;;;;;4.63;2.08;;;17.20;48.50;;;15.92;49.29;102211.91;12245068;19;20030;-82
2022/10/11 17:00:51;;;;;;;3.28;2.55;;;16.70;48.40;;;15.93;49.47;102228.56;12241623;19;20468;-82